Time;durP1;ratioP1;P1;durP2;ratioP2;P2;SDS_P1;SDS_P2;PMS_P1;PMS_P2;Temp;Humidity;BMP_temperature;BMP_pressure;BME280_temperature;BME280_humidity;BME280_pressure;Samples;Min_cycle;Max_cycle;Signal;HPM_P1;HPM_P2
2022/09/12 00:01:43;;;;;;;15.68;9.05;;;;;;;;;;4899076;29;20033;-74
2022/09/12 00:04:10;;;;;;;14.82;8.43;;;;;;;;;;4882146;29;20028;-77
2022/09/12 00:06:37;;;;;;;12.45;7.25;;;;;;;;;;4898989;29;20078;-76
2022/09/12 00:09:07;;;;;;;13.68;6.75;;;;;;;;;;4881846;29;20494;-74
2022/09/12 00:11:37;;;;;;;14.65;7.70;;;;;;;;;;4881973;29;20035;-74
2022/09/12 00:14:04;;;;;;;15.13;8.25;;;;;;;;;;4882064;29;20036;-78
2022/09/12 00:16:31;;;;;;;13.82;9.15;;;;;;;;;;4882045;29;20024;-77
2022/09/12 00:18:57;;;;;;;15.38;7.35;;;;;;;;;;4881979;29;20085;-79
2022/09/12 00:21:24;;;;;;;18.90;8.40;;;;;;;;;;4882189;29;20076;-76
2022/09/12 00:23:50;;;;;;;17.52;10.10;;;;;;;;;;4898805;29;20033;-76
2022/09/12 00:26:17;;;;;;;13.25;7.68;;;;;;;;;;4882115;29;20123;-74
2022/09/12 00:28:43;;;;;;;15.50;8.35;;;;;;;;;;4898657;29;20036;-76
2022/09/12 00:31:12;;;;;;;16.15;8.23;;;;;;;;;;4881761;29;20497;-75
2022/09/12 00:33:38;;;;;;;13.82;8.15;;;;;;;;;;4898664;29;20029;-78
2022/09/12 00:36:10;;;;;;;15.80;8.75;;;;;;;;;;4881989;29;20025;-76
2022/09/12 00:38:37;;;;;;;17.48;10.48;;;;;;;;;;4881769;29;20039;-76
2022/09/12 00:41:06;;;;;;;14.32;9.00;;;;;;;;;;4881770;29;20053;-78
2022/09/12 00:43:38;;;;;;;18.75;10.38;;;;;;;;;;4881748;29;20036;-76
2022/09/12 00:46:23;;;;;;;14.20;7.65;;;;;;;;;;4885330;29;20052;-79
2022/09/12 00:48:52;;;;;;;15.85;8.95;;;;;;;;;;4885610;29;20594;-78
2022/09/12 00:51:18;;;;;;;14.63;8.48;;;;;;;;;;4885657;29;20033;-80
2022/09/12 00:53:46;;;;;;;19.30;9.48;;;;;;;;;;4902234;29;20035;-76
2022/09/12 00:56:14;;;;;;;16.50;9.63;;;;;;;;;;4885267;29;20036;-76
2022/09/12 00:58:42;;;;;;;16.63;10.57;;;;;;;;;;4885513;29;20028;-77
2022/09/12 01:01:09;;;;;;;16.08;9.10;;;;;;;;;;4885145;29;20061;-76
2022/09/12 01:03:35;;;;;;;16.88;8.60;;;;;;;;;;4885009;29;20040;-77
2022/09/12 01:06:04;;;;;;;20.33;9.82;;;;;;;;;;4885464;29;20021;-76
2022/09/12 01:08:32;;;;;;;15.18;7.78;;;;;;;;;;4885175;29;20033;-77
2022/09/12 01:10:58;;;;;;;13.00;7.95;;;;;;;;;;4901838;29;20120;-78
2022/09/12 01:13:25;;;;;;;13.38;7.75;;;;;;;;;;4902126;29;20501;-77
2022/09/12 01:15:53;;;;;;;13.25;8.95;;;;;;;;;;4885103;29;20084;-78
2022/09/12 01:18:19;;;;;;;13.70;7.05;;;;;;;;;;4884890;29;20127;-76
2022/09/12 01:20:54;;;;;;;16.23;8.57;;;;;;;;;;4884773;29;20037;-75
2022/09/12 01:23:23;;;;;;;13.48;7.90;;;;;;;;;;4885293;29;20371;-78
2022/09/12 01:26:04;;;;;;;12.93;7.50;;;;;;;;;;4884944;29;20059;-75
2022/09/12 01:28:46;;;;;;;12.63;8.40;;;;;;;;;;4884829;29;20032;-75
2022/09/12 01:31:38;;;;;;;15.32;9.40;;;;;;;;;;4884964;29;20032;-75
2022/09/12 01:34:25;;;;;;;13.60;7.90;;;;;;;;;;4880023;29;20072;-78
2022/09/12 01:37:02;;;;;;;12.48;7.82;;;;;;;;;;4884718;29;20033;-75
2022/09/12 01:39:50;;;;;;;14.68;8.15;;;;;;;;;;4884833;29;20032;-77
2022/09/12 01:42:33;;;;;;;12.98;8.02;;;;;;;;;;4884617;29;20135;-75
2022/09/12 01:44:59;;;;;;;15.82;9.45;;;;;;;;;;4884983;29;20501;-78
2022/09/12 01:47:44;;;;;;;13.48;7.32;;;;;;;;;;4884425;29;20060;-77
2022/09/12 01:50:12;;;;;;;15.38;8.63;;;;;;;;;;4901359;29;20161;-77
2022/09/12 01:52:42;;;;;;;17.10;10.40;;;;;;;;;;4884176;29;20128;-78
2022/09/12 01:55:17;;;;;;;14.38;8.55;;;;;;;;;;4883815;29;20394;-75
2022/09/12 01:57:51;;;;;;;17.15;8.57;;;;;;;;;;4884204;29;20482;-79
2022/09/12 02:00:17;;;;;;;13.95;9.65;;;;;;;;;;4884738;29;20032;-74
2022/09/12 02:02:47;;;;;;;13.98;8.20;;;;;;;;;;4900807;29;20037;-75
2022/09/12 02:05:19;;;;;;;14.23;9.93;;;;;;;;;;4900784;29;20095;-75
2022/09/12 02:07:49;;;;;;;12.95;9.18;;;;;;;;;;4901023;29;20415;-76
2022/09/12 02:10:21;;;;;;;11.65;7.50;;;;;;;;;;4883968;29;20035;-77
2022/09/12 02:12:53;;;;;;;14.57;9.27;;;;;;;;;;4884266;29;20033;-76
2022/09/12 02:15:21;;;;;;;13.65;7.97;;;;;;;;;;4883955;29;20490;-76
2022/09/12 02:17:49;;;;;;;16.95;9.25;;;;;;;;;;4884037;29;20416;-76
2022/09/12 02:20:41;;;;;;;14.50;8.07;;;;;;;;;;4884230;29;20036;-76
2022/09/12 02:23:10;;;;;;;13.13;9.90;;;;;;;;;;4897341;29;20072;-75
2022/09/12 02:25:41;;;;;;;12.23;7.35;;;;;;;;;;4883903;29;20076;-75
2022/09/12 02:28:13;;;;;;;14.20;9.60;;;;;;;;;;4884216;29;20035;-76
2022/09/12 02:30:50;;;;;;;13.68;8.00;;;;;;;;;;4883721;29;20042;-77
2022/09/12 02:33:29;;;;;;;15.23;8.63;;;;;;;;;;4900561;29;20028;-76
2022/09/12 02:36:00;;;;;;;11.45;7.35;;;;;;;;;;4883803;29;20453;-74
2022/09/12 02:38:43;;;;;;;14.52;7.88;;;;;;;;;;4900347;29;20033;-74
2022/09/12 02:41:10;;;;;;;12.27;8.75;;;;;;;;;;4883680;29;20385;-75
2022/09/12 02:43:37;;;;;;;14.55;8.05;;;;;;;;;;4883645;29;20120;-78
2022/09/12 02:46:05;;;;;;;13.02;8.38;;;;;;;;;;4900037;29;20383;-77
2022/09/12 02:48:34;;;;;;;13.63;7.60;;;;;;;;;;4883739;29;20029;-73
2022/09/12 02:51:00;;;;;;;12.75;8.15;;;;;;;;;;4883431;29;20490;-75
2022/09/12 02:53:27;;;;;;;12.27;7.15;;;;;;;;;;4883393;29;20035;-78
2022/09/12 02:55:53;;;;;;;11.68;7.97;;;;;;;;;;4883665;29;20025;-74
2022/09/12 02:58:25;;;;;;;10.35;7.53;;;;;;;;;;4883245;29;20489;-77
2022/09/12 03:00:54;;;;;;;15.75;8.63;;;;;;;;;;4867851;29;20569;-78
2022/09/12 03:03:23;;;;;;;10.27;7.45;;;;;;;;;;4882937;29;20040;-75
2022/09/12 03:05:57;;;;;;;11.35;7.75;;;;;;;;;;4883013;29;20545;-75
2022/09/12 03:08:30;;;;;;;13.07;6.90;;;;;;;;;;4882476;29;20504;-75
2022/09/12 03:11:15;;;;;;;11.68;6.53;;;;;;;;;;4883329;29;20095;-74
2022/09/12 03:13:55;;;;;;;12.77;8.32;;;;;;;;;;4883066;29;20041;-74
2022/09/12 03:16:24;;;;;;;10.02;7.13;;;;;;;;;;4900226;29;20446;-75
2022/09/12 03:19:07;;;;;;;12.77;8.30;;;;;;;;;;4882893;29;20139;-74
2022/09/12 03:21:40;;;;;;;10.48;7.10;;;;;;;;;;4882728;29;20443;-74
2022/09/12 03:24:32;;;;;;;10.95;6.50;;;;;;;;;;4882992;29;20064;-74
2022/09/12 03:27:11;;;;;;;10.57;7.45;;;;;;;;;;4880304;29;20036;-77
2022/09/12 03:29:38;;;;;;;12.05;6.30;;;;;;;;;;4882595;29;20036;-78
2022/09/12 03:32:04;;;;;;;13.23;7.38;;;;;;;;;;4882832;29;20029;-76
2022/09/12 03:34:30;;;;;;;15.65;7.57;;;;;;;;;;4882591;29;20561;-76
2022/09/12 03:36:57;;;;;;;12.13;7.50;;;;;;;;;;4899315;29;20021;-76
2022/09/12 03:39:23;;;;;;;14.60;7.63;;;;;;;;;;4882734;29;20037;-74
2022/09/12 03:41:50;;;;;;;13.20;7.68;;;;;;;;;;4882506;29;20028;-76
2022/09/12 03:44:17;;;;;;;9.27;6.50;;;;;;;;;;4882357;29;20044;-77
2022/09/12 03:46:43;;;;;;;17.30;8.18;;;;;;;;;;4898914;29;20494;-77
2022/09/12 03:49:09;;;;;;;11.68;7.78;;;;;;;;;;4882269;29;20092;-74
2022/09/12 03:51:36;;;;;;;12.18;7.57;;;;;;;;;;4899105;29;20033;-77
2022/09/12 03:54:03;;;;;;;10.15;6.78;;;;;;;;;;4899186;29;20032;-77
2022/09/12 03:56:29;;;;;;;15.07;7.50;;;;;;;;;;4882280;29;20029;-77
2022/09/12 03:58:56;;;;;;;12.35;7.40;;;;;;;;;;4899266;29;20044;-77
2022/09/12 04:01:22;;;;;;;10.20;7.47;;;;;;;;;;4882036;29;20055;-77
2022/09/12 04:03:49;;;;;;;11.35;8.02;;;;;;;;;;4898948;29;20041;-74
2022/09/12 04:06:17;;;;;;;13.27;6.25;;;;;;;;;;4898972;29;20028;-75
2022/09/12 04:08:44;;;;;;;15.13;7.65;;;;;;;;;;4881965;29;20032;-73
2022/09/12 04:11:12;;;;;;;11.70;7.70;;;;;;;;;;4898803;29;20024;-75
2022/09/12 04:13:38;;;;;;;12.45;7.72;;;;;;;;;;4881873;29;20099;-74
2022/09/12 04:16:06;;;;;;;12.85;7.80;;;;;;;;;;4898958;29;20386;-76
2022/09/12 04:18:32;;;;;;;13.45;8.55;;;;;;;;;;4881850;29;20039;-78
2022/09/12 04:20:58;;;;;;;10.38;5.90;;;;;;;;;;4898454;29;20095;-73
2022/09/12 04:23:25;;;;;;;12.85;8.25;;;;;;;;;;4898764;29;20040;-74
2022/09/12 04:25:55;;;;;;;10.32;6.13;;;;;;;;;;4881974;29;20104;-78
2022/09/12 04:28:21;;;;;;;19.15;7.93;;;;;;;;;;4881707;29;20479;-74
2022/09/12 04:30:47;;;;;;;13.00;7.85;;;;;;;;;;4881640;29;20084;-78
2022/09/12 04:33:13;;;;;;;12.25;7.15;;;;;;;;;;4881911;29;20025;-77
2022/09/12 04:35:40;;;;;;;11.05;6.85;;;;;;;;;;4898766;29;20489;-74
2022/09/12 04:38:06;;;;;;;15.48;7.68;;;;;;;;;;4881662;29;20502;-75
2022/09/12 04:40:33;;;;;;;9.65;6.43;;;;;;;;;;4881544;29;20032;-75
2022/09/12 04:42:59;;;;;;;9.55;6.07;;;;;;;;;;4898332;29;20044;-75
2022/09/12 04:45:25;;;;;;;11.57;6.13;;;;;;;;;;4881410;29;20073;-72
2022/09/12 04:47:51;;;;;;;12.60;6.82;;;;;;;;;;4881264;29;20139;-75
2022/09/12 04:50:18;;;;;;;10.05;5.93;;;;;;;;;;4881317;29;20397;-77
2022/09/12 04:52:49;;;;;;;10.75;6.80;;;;;;;;;;4898330;29;20028;-75
2022/09/12 04:55:24;;;;;;;10.73;5.93;;;;;;;;;;4898319;29;20056;-76
2022/09/12 04:57:51;;;;;;;12.27;6.97;;;;;;;;;;4881349;29;20132;-77
2022/09/12 05:00:17;;;;;;;10.82;6.25;;;;;;;;;;4881643;29;20173;-75
2022/09/12 05:02:43;;;;;;;10.65;5.40;;;;;;;;;;4881367;29;20491;-75
2022/09/12 05:05:10;;;;;;;8.75;5.70;;;;;;;;;;4881602;29;20503;-74
2022/09/12 05:07:36;;;;;;;12.30;6.57;;;;;;;;;;4898609;29;20037;-78
2022/09/12 05:10:03;;;;;;;12.00;6.25;;;;;;;;;;4881735;29;20508;-76
2022/09/12 05:12:30;;;;;;;11.30;6.35;;;;;;;;;;4881443;29;20143;-75
2022/09/12 05:14:56;;;;;;;7.18;5.47;;;;;;;;;;4898538;29;20068;-77
2022/09/12 05:19:52;;;;;;;10.90;5.78;;;;;;;;;;4878042;29;20088;-79
2022/09/12 05:22:18;;;;;;;8.43;5.45;;;;;;;;;;4878094;29;20482;-79
2022/09/12 05:24:44;;;;;;;9.88;5.85;;;;;;;;;;4877800;29;20543;-78
2022/09/12 05:27:10;;;;;;;8.32;5.25;;;;;;;;;;4877900;29;20025;-79
2022/09/12 05:29:36;;;;;;;7.93;5.50;;;;;;;;;;4878191;29;20446;-74
2022/09/12 05:32:03;;;;;;;7.60;5.15;;;;;;;;;;4882879;29;20387;-74
2022/09/12 05:34:29;;;;;;;9.20;5.00;;;;;;;;;;4881406;29;20025;-77
2022/09/12 05:36:55;;;;;;;8.20;5.32;;;;;;;;;;4881247;29;20029;-74
2022/09/12 05:39:22;;;;;;;9.57;5.25;;;;;;;;;;4883012;29;20066;-77
2022/09/12 05:41:48;;;;;;;7.00;4.68;;;;;;;;;;4929250;23;20052;-74
2022/09/12 05:44:15;;;;;;;8.63;4.65;;;;;;;;;;4901023;29;20033;-74
2022/09/12 05:46:42;;;;;;;7.63;4.55;;;;;;;;;;4894930;29;20387;-73
2022/09/12 05:49:10;;;;;;;11.57;4.90;;;;;;;;;;4881493;29;20040;-72
2022/09/12 05:51:37;;;;;;;8.07;5.35;;;;;;;;;;4883726;29;20216;-73
2022/09/12 05:54:04;;;;;;;8.35;5.07;;;;;;;;;;4883831;29;20471;-73
2022/09/12 05:56:32;;;;;;;7.95;5.30;;;;;;;;;;4883856;29;20508;-74
2022/09/12 05:58:59;;;;;;;10.13;4.72;;;;;;;;;;4888107;29;20537;-74
2022/09/12 06:01:26;;;;;;;8.38;4.60;;;;;;;;;;4916332;29;20035;-73
2022/09/12 06:03:53;;;;;;;7.82;4.80;;;;;;;;;;4909620;29;20040;-74
2022/09/12 06:06:20;;;;;;;7.60;4.25;;;;;;;;;;4883731;29;20132;-74
2022/09/12 06:08:48;;;;;;;6.93;4.30;;;;;;;;;;4900437;29;20055;-75
2022/09/12 06:11:15;;;;;;;8.52;4.60;;;;;;;;;;4900388;29;20029;-75
2022/09/12 06:13:42;;;;;;;7.95;4.00;;;;;;;;;;4900452;29;20037;-74
2022/09/12 06:16:10;;;;;;;7.05;4.47;;;;;;;;;;4899145;29;20028;-74
2022/09/12 06:18:37;;;;;;;7.43;4.13;;;;;;;;;;4900152;29;20518;-74
2022/09/12 06:21:04;;;;;;;5.95;3.63;;;;;;;;;;4899093;29;20494;-76
2022/09/12 06:23:30;;;;;;;7.10;3.53;;;;;;;;;;4898776;29;20043;-77
2022/09/12 06:25:56;;;;;;;7.43;3.72;;;;;;;;;;4898771;29;20199;-73
2022/09/12 06:28:22;;;;;;;6.45;3.90;;;;;;;;;;4898813;29;20088;-73
2022/09/12 06:30:49;;;;;;;6.45;3.53;;;;;;;;;;4898739;29;20040;-72
2022/09/12 06:33:15;;;;;;;6.47;3.63;;;;;;;;;;4899045;29;20025;-76
2022/09/12 06:35:41;;;;;;;7.25;3.53;;;;;;;;;;4899031;29;20123;-73
2022/09/12 06:38:08;;;;;;;8.23;3.97;;;;;;;;;;4898874;29;20485;-73
2022/09/12 06:40:34;;;;;;;5.57;3.55;;;;;;;;;;4899745;29;20032;-75
2022/09/12 06:43:00;;;;;;;6.65;3.53;;;;;;;;;;4898546;29;20188;-72
2022/09/12 06:45:27;;;;;;;5.45;3.53;;;;;;;;;;4899924;29;20036;-73
2022/09/12 06:51:04;;;;;;;13.13;3.50;;;;;;;;;;4882235;29;20043;-82
2022/09/12 06:53:35;;;;;;;8.65;3.15;;;;;;;;;;4890561;29;20043;-84
2022/09/12 06:56:36;;;;;;;7.82;3.38;;;;;;;;;;4864574;29;20181;-86
2022/09/12 07:02:06;;;;;;;9.05;3.20;;;;;;;;;;4908768;23;20485;-85
2022/09/12 07:04:35;;;;;;;6.20;3.03;;;;;;;;;;4898430;29;20054;-82
2022/09/12 07:07:01;;;;;;;4.97;2.42;;;;;;;;;;4901830;29;20500;-81
2022/09/12 07:09:29;;;;;;;3.65;2.20;;;;;;;;;;4919167;29;20037;-82
2022/09/12 15:43:22;;;;;;;2.45;1.50;;;;;;;;;;5923188;23;20028;31
2022/09/12 16:00:09;;;;;;;4.40;1.45;;;;;;;;;;4903318;29;20048;-93
2022/09/12 16:02:54;;;;;;;2.30;1.48;;;;;;;;;;4885712;29;20064;-95
2022/09/12 16:11:37;;;;;;;6.85;1.45;;;;;;;;;;4902990;29;20173;-93
2022/09/12 16:19:49;;;;;;;2.50;1.33;;;;;;;;;;4902533;29;20088;-95
2022/09/12 17:02:40;;;;;;;2.15;1.10;;;;;;;;;;4902055;29;20060;-96
2022/09/12 17:17:44;;;;;;;2.17;1.45;;;;;;;;;;4897847;29;20095;-92
2022/09/12 17:54:27;;;;;;;2.55;1.33;;;;;;;;;;5328152;23;20394;-76
2022/09/12 17:56:55;;;;;;;3.60;1.83;;;;;;;;;;4884320;29;20040;-71
2022/09/12 17:59:23;;;;;;;2.90;1.77;;;;;;;;;;4901108;29;20025;-74
2022/09/12 18:04:35;;;;;;;5.05;2.13;;;;;;;;;;4903220;29;20044;-74
2022/09/12 18:07:01;;;;;;;5.22;3.30;;;;;;;;;;4892651;29;20043;-74
2022/09/12 18:09:27;;;;;;;7.45;3.00;;;;;;;;;;4914420;29;20028;-73
2022/09/12 18:11:57;;;;;;;4.20;2.60;;;;;;;;;;4923217;29;20080;-73
2022/09/12 18:14:25;;;;;;;6.97;3.00;;;;;;;;;;4904616;29;20025;-74
2022/09/12 18:16:51;;;;;;;5.53;3.33;;;;;;;;;;4919702;29;20469;-74
2022/09/12 18:19:22;;;;;;;5.72;2.72;;;;;;;;;;4902127;29;20504;-78
2022/09/12 18:21:48;;;;;;;6.20;3.65;;;;;;;;;;4919489;29;20024;-73
2022/09/12 18:24:14;;;;;;;5.03;3.10;;;;;;;;;;4902438;29;20431;-75
2022/09/12 18:26:42;;;;;;;5.63;3.47;;;;;;;;;;4919399;29;20056;-73
2022/09/12 18:29:08;;;;;;;5.63;3.17;;;;;;;;;;4892271;29;20119;-73
2022/09/12 18:31:35;;;;;;;8.18;3.90;;;;;;;;;;4883488;29;20457;-76
2022/09/12 18:34:01;;;;;;;5.75;3.13;;;;;;;;;;4900524;29;20056;-74
2022/09/12 18:36:28;;;;;;;7.18;3.85;;;;;;;;;;4883383;29;20056;-76
2022/09/12 18:38:54;;;;;;;5.75;3.13;;;;;;;;;;4883146;29;20025;-75
2022/09/12 18:41:22;;;;;;;4.65;2.80;;;;;;;;;;4884869;29;20032;-76
2022/09/12 18:43:49;;;;;;;4.65;2.55;;;;;;;;;;4898660;29;20064;-72
2022/09/12 18:46:16;;;;;;;4.13;2.38;;;;;;;;;;4900130;29;20036;-72
2022/09/12 18:48:43;;;;;;;6.30;2.65;;;;;;;;;;4899998;29;20040;-72
2022/09/12 18:51:16;;;;;;;6.47;2.50;;;;;;;;;;4900186;29;20033;-73
2022/09/12 18:53:43;;;;;;;9.00;2.20;;;;;;;;;;4882933;29;20498;-72
2022/09/12 18:56:11;;;;;;;4.75;2.70;;;;;;;;;;4899920;29;20028;-73
2022/09/12 18:58:39;;;;;;;3.67;1.95;;;;;;;;;;4899565;29;20108;-73
2022/09/12 19:01:21;;;;;;;4.63;2.17;;;;;;;;;;4899472;29;20035;-73
2022/09/12 19:03:48;;;;;;;4.97;2.20;;;;;;;;;;4882653;29;20043;-74
2022/09/12 19:06:27;;;;;;;3.72;2.20;;;;;;;;;;4899404;29;20031;-74
2022/09/12 19:08:54;;;;;;;6.90;2.40;;;;;;;;;;4899589;29;20105;-74
2022/09/12 19:11:20;;;;;;;3.90;1.98;;;;;;;;;;4899384;29;20063;-74
2022/09/12 19:13:48;;;;;;;3.92;1.98;;;;;;;;;;4899431;29;20072;-74
2022/09/12 19:16:15;;;;;;;5.03;2.25;;;;;;;;;;4899754;29;20032;-74
2022/09/12 19:18:42;;;;;;;4.28;1.73;;;;;;;;;;4899487;29;20073;-73
2022/09/12 19:21:13;;;;;;;7.53;2.42;;;;;;;;;;4899576;29;20052;-75
2022/09/12 19:23:40;;;;;;;3.50;2.00;;;;;;;;;;4900537;29;20123;-73
2022/09/12 19:26:08;;;;;;;3.95;2.33;;;;;;;;;;4899442;29;20103;-76
2022/09/12 19:28:34;;;;;;;6.00;2.45;;;;;;;;;;4899452;29;20062;-76
2022/09/12 19:31:05;;;;;;;6.70;2.40;;;;;;;;;;4882481;29;20442;-75
2022/09/12 19:33:31;;;;;;;4.72;2.30;;;;;;;;;;4899562;29;20057;-75
2022/09/12 19:36:02;;;;;;;3.83;2.17;;;;;;;;;;4899297;29;20040;-75
2022/09/12 19:38:28;;;;;;;3.42;1.95;;;;;;;;;;4899267;29;20021;-74
2022/09/12 19:40:58;;;;;;;4.85;2.20;;;;;;;;;;4899212;29;20435;-75
2022/09/12 19:43:24;;;;;;;9.20;2.03;;;;;;;;;;4882212;29;20438;-75
2022/09/12 19:45:51;;;;;;;4.00;2.42;;;;;;;;;;4882277;29;20025;-74
2022/09/12 19:48:17;;;;;;;3.42;2.20;;;;;;;;;;4898611;29;20068;-74
2022/09/12 19:50:43;;;;;;;5.97;2.30;;;;;;;;;;4898763;29;20029;-74
2022/09/12 19:53:10;;;;;;;3.55;1.90;;;;;;;;;;4899113;29;20533;-74
2022/09/12 19:55:37;;;;;;;4.25;2.42;;;;;;;;;;4899482;29;20096;-74
2022/09/12 19:58:04;;;;;;;5.18;2.70;;;;;;;;;;4898894;29;20033;-74
2022/09/12 20:00:31;;;;;;;7.15;2.60;;;;;;;;;;4881991;29;20505;-74
2022/09/12 20:02:57;;;;;;;5.45;2.47;;;;;;;;;;4882192;29;20040;-75
2022/09/12 20:05:23;;;;;;;4.40;1.90;;;;;;;;;;4898869;29;20024;-75
2022/09/12 20:07:49;;;;;;;6.43;2.10;;;;;;;;;;4898762;29;20164;-75
2022/09/12 20:10:15;;;;;;;8.40;1.73;;;;;;;;;;4898744;29;20470;-75
2022/09/12 20:12:41;;;;;;;6.07;1.90;;;;;;;;;;4898623;29;20029;-74
2022/09/12 20:15:08;;;;;;;7.28;2.20;;;;;;;;;;4898808;29;20431;-75
2022/09/12 20:17:34;;;;;;;3.83;2.13;;;;;;;;;;4898757;29;20494;-74
2022/09/12 20:20:01;;;;;;;5.55;2.60;;;;;;;;;;4897952;29;20149;-79
2022/09/12 20:22:27;;;;;;;6.93;2.88;;;;;;;;;;4880884;29;20044;-74
2022/09/12 20:24:53;;;;;;;5.28;2.78;;;;;;;;;;4898751;29;20055;-74
2022/09/12 20:27:19;;;;;;;5.88;2.80;;;;;;;;;;4906598;29;20032;-73
2022/09/12 20:29:45;;;;;;;5.82;2.95;;;;;;;;;;4898150;29;20029;-75
2022/09/12 20:32:11;;;;;;;6.85;2.83;;;;;;;;;;4881670;29;20028;-73
2022/09/12 20:34:37;;;;;;;5.85;3.03;;;;;;;;;;4898449;29;20427;-74
2022/09/12 20:37:03;;;;;;;8.82;2.65;;;;;;;;;;4899333;29;20037;-73
2022/09/12 20:39:29;;;;;;;4.88;2.70;;;;;;;;;;4899040;29;20033;-74
2022/09/12 20:41:55;;;;;;;5.68;2.80;;;;;;;;;;4898441;29;20040;-76
2022/09/12 20:44:21;;;;;;;5.07;2.63;;;;;;;;;;4898536;29;20048;-73
2022/09/12 20:46:48;;;;;;;8.77;3.13;;;;;;;;;;4898908;29;20378;-75
2022/09/12 20:49:14;;;;;;;5.65;2.40;;;;;;;;;;4898651;29;20056;-75
2022/09/12 20:51:40;;;;;;;7.97;2.65;;;;;;;;;;4886776;29;20035;-74
2022/09/12 20:54:06;;;;;;;5.78;2.53;;;;;;;;;;4904058;29;20052;-74
2022/09/12 20:56:33;;;;;;;5.45;2.33;;;;;;;;;;4882246;29;20036;-75
2022/09/12 20:58:59;;;;;;;7.68;3.05;;;;;;;;;;4886124;29;20033;-75
2022/09/12 21:01:28;;;;;;;7.78;3.45;;;;;;;;;;4883906;29;20140;-73
2022/09/12 21:04:14;;;;;;;8.32;4.20;;;;;;;;;;4887332;29;20102;-76
2022/09/12 21:06:40;;;;;;;10.38;3.35;;;;;;;;;;4904848;29;20463;-73
2022/09/12 21:09:07;;;;;;;12.07;4.00;;;;;;;;;;4891532;29;20032;-73
2022/09/12 21:11:33;;;;;;;7.18;3.95;;;;;;;;;;4910880;29;20060;-75
2022/09/12 21:13:59;;;;;;;7.00;3.63;;;;;;;;;;4887087;29;20025;-74
2022/09/12 21:16:26;;;;;;;7.95;3.13;;;;;;;;;;4902315;29;20040;-75
2022/09/12 21:18:56;;;;;;;7.97;2.50;;;;;;;;;;4885124;29;20043;-76
2022/09/12 21:21:23;;;;;;;5.28;2.70;;;;;;;;;;4885550;29;20390;-75
2022/09/12 21:23:54;;;;;;;6.90;2.85;;;;;;;;;;4885467;29;20032;-77
2022/09/12 21:26:20;;;;;;;6.28;2.95;;;;;;;;;;4885652;29;20043;-76
2022/09/12 21:28:47;;;;;;;4.75;2.60;;;;;;;;;;4903073;29;20036;-75
2022/09/12 21:31:14;;;;;;;6.38;2.30;;;;;;;;;;4901735;29;20128;-77
2022/09/12 21:33:40;;;;;;;4.35;1.90;;;;;;;;;;4885062;29;20036;-77
2022/09/12 21:36:06;;;;;;;4.45;2.42;;;;;;;;;;4901914;29;20474;-73
2022/09/12 21:38:33;;;;;;;4.57;2.40;;;;;;;;;;4884841;29;20028;-77
2022/09/12 21:41:03;;;;;;;7.05;2.22;;;;;;;;;;4884927;29;20052;-76
2022/09/12 21:43:29;;;;;;;3.22;1.50;;;;;;;;;;4901803;29;20108;-77
2022/09/12 21:45:57;;;;;;;4.90;2.30;;;;;;;;;;4884911;29;20497;-76
2022/09/12 21:48:23;;;;;;;4.60;2.08;;;;;;;;;;4901524;29;20031;-77
2022/09/12 21:50:49;;;;;;;5.20;2.33;;;;;;;;;;4884848;29;20037;-76
2022/09/12 21:53:16;;;;;;;4.72;1.85;;;;;;;;;;4884589;29;20028;-76
2022/09/12 21:55:42;;;;;;;6.05;2.45;;;;;;;;;;4884695;29;20052;-76
2022/09/12 21:58:08;;;;;;;3.65;2.33;;;;;;;;;;4884839;29;20029;-75
2022/09/12 22:00:34;;;;;;;6.10;2.22;;;;;;;;;;4884717;29;20058;-75
2022/09/12 22:03:00;;;;;;;9.27;2.45;;;;;;;;;;4901717;29;20360;-75
2022/09/12 22:05:28;;;;;;;4.65;2.25;;;;;;;;;;4884339;29;20061;-76
2022/09/12 22:07:54;;;;;;;5.65;1.83;;;;;;;;;;4884331;29;20040;-74
2022/09/12 22:10:21;;;;;;;3.72;1.70;;;;;;;;;;4884254;29;20115;-77
2022/09/12 22:12:47;;;;;;;2.95;1.60;;;;;;;;;;4883888;29;20040;-77
